sensor_id;sensor_type;location;lat;lon;timestamp;temperature;humidity
26336;DHT22;14047;50.936;4.654;2023-05-07T00:01:57;18.00;99.90
26336;DHT22;14047;50.936;4.654;2023-05-07T00:04:23;18.00;99.90
26336;DHT22;14047;50.936;4.654;2023-05-07T00:06:49;18.00;99.90
26336;DHT22;14047;50.936;4.654;2023-05-07T00:09:15;18.00;99.90
26336;DHT22;14047;50.936;4.654;2023-05-07T00:11:42;18.10;99.90
26336;DHT22;14047;50.936;4.654;2023-05-07T00:14:08;18.10;99.90
26336;DHT22;14047;50.936;4.654;2023-05-07T00:16:34;18.00;99.90
26336;DHT22;14047;50.936;4.654;2023-05-07T00:19:00;18.10;99.90
26336;DHT22;14047;50.936;4.654;2023-05-07T00:21:26;18.00;99.90
26336;DHT22;14047;50.936;4.654;2023-05-07T00:23:53;18.10;99.90
26336;DHT22;14047;50.936;4.654;2023-05-07T00:26:19;18.10;99.90
26336;DHT22;14047;50.936;4.654;2023-05-07T00:28:47;18.10;99.90
26336;DHT22;14047;50.936;4.654;2023-05-07T00:31:13;18.10;99.90
26336;DHT22;14047;50.936;4.654;2023-05-07T00:33:39;18.10;99.90
26336;DHT22;14047;50.936;4.654;2023-05-07T00:36:05;18.10;99.90
26336;DHT22;14047;50.936;4.654;2023-05-07T00:38:31;18.10;99.90
26336;DHT22;14047;50.936;4.654;2023-05-07T00:40:57;18.00;99.90
26336;DHT22;14047;50.936;4.654;2023-05-07T00:43:23;18.00;99.90
26336;DHT22;14047;50.936;4.654;2023-05-07T00:45:49;18.00;99.90
26336;DHT22;14047;50.936;4.654;2023-05-07T00:48:16;17.90;99.90
26336;DHT22;14047;50.936;4.654;2023-05-07T00:50:42;17.80;99.90
26336;DHT22;14047;50.936;4.654;2023-05-07T00:53:08;17.70;99.90
26336;DHT22;14047;50.936;4.654;2023-05-07T00:55:35;17.80;99.90
26336;DHT22;14047;50.936;4.654;2023-05-07T00:58:02;17.80;99.90
26336;DHT22;14047;50.936;4.654;2023-05-07T01:00:28;17.80;99.90
26336;DHT22;14047;50.936;4.654;2023-05-07T01:02:55;17.80;99.90
26336;DHT22;14047;50.936;4.654;2023-05-07T01:05:23;17.70;99.90
26336;DHT22;14047;50.936;4.654;2023-05-07T01:07:51;17.70;99.90
26336;DHT22;14047;50.936;4.654;2023-05-07T01:10:17;17.60;99.90
26336;DHT22;14047;50.936;4.654;2023-05-07T01:12:45;17.60;99.90
26336;DHT22;14047;50.936;4.654;2023-05-07T01:15:12;17.50;99.90
26336;DHT22;14047;50.936;4.654;2023-05-07T01:17:41;17.40;99.90
26336;DHT22;14047;50.936;4.654;2023-05-07T01:20:13;17.30;99.90
26336;DHT22;14047;50.936;4.654;2023-05-07T01:22:40;17.00;99.90
26336;DHT22;14047;50.936;4.654;2023-05-07T01:25:08;17.10;99.90
26336;DHT22;14047;50.936;4.654;2023-05-07T01:27:36;17.10;99.90
26336;DHT22;14047;50.936;4.654;2023-05-07T01:30:04;17.00;99.90
26336;DHT22;14047;50.936;4.654;2023-05-07T01:35:13;17.00;99.90
26336;DHT22;14047;50.936;4.654;2023-05-07T01:37:41;17.10;99.90
26336;DHT22;14047;50.936;4.654;2023-05-07T01:40:08;17.20;99.90
26336;DHT22;14047;50.936;4.654;2023-05-07T01:42:35;17.20;99.90
26336;DHT22;14047;50.936;4.654;2023-05-07T01:45:02;17.10;99.90
26336;DHT22;14047;50.936;4.654;2023-05-07T01:47:29;17.10;99.90
26336;DHT22;14047;50.936;4.654;2023-05-07T01:49:56;17.20;99.90
26336;DHT22;14047;50.936;4.654;2023-05-07T01:52:28;17.30;99.90
26336;DHT22;14047;50.936;4.654;2023-05-07T01:54:54;17.30;99.90
26336;DHT22;14047;50.936;4.654;2023-05-07T01:57:20;17.40;99.90
26336;DHT22;14047;50.936;4.654;2023-05-07T01:59:46;17.50;99.90
26336;DHT22;14047;50.936;4.654;2023-05-07T02:02:13;17.40;99.90
26336;DHT22;14047;50.936;4.654;2023-05-07T02:04:41;17.30;99.90
26336;DHT22;14047;50.936;4.654;2023-05-07T02:07:07;17.40;99.90
26336;DHT22;14047;50.936;4.654;2023-05-07T02:09:33;17.40;99.90
26336;DHT22;14047;50.936;4.654;2023-05-07T02:11:59;17.40;99.90
26336;DHT22;14047;50.936;4.654;2023-05-07T02:14:26;17.50;99.90
26336;DHT22;14047;50.936;4.654;2023-05-07T02:16:52;17.40;99.90
26336;DHT22;14047;50.936;4.654;2023-05-07T02:19:18;17.40;99.90
26336;DHT22;14047;50.936;4.654;2023-05-07T02:21:47;17.40;99.90
26336;DHT22;14047;50.936;4.654;2023-05-07T02:24:13;17.40;99.90
26336;DHT22;14047;50.936;4.654;2023-05-07T02:26:40;17.50;99.90
26336;DHT22;14047;50.936;4.654;2023-05-07T02:29:07;17.50;99.90
26336;DHT22;14047;50.936;4.654;2023-05-07T02:31:33;17.50;99.90
26336;DHT22;14047;50.936;4.654;2023-05-07T02:34:02;17.50;99.90
26336;DHT22;14047;50.936;4.654;2023-05-07T02:36:28;17.40;99.90
26336;DHT22;14047;50.936;4.654;2023-05-07T02:39:02;17.40;99.90
26336;DHT22;14047;50.936;4.654;2023-05-07T02:41:28;17.30;99.90
26336;DHT22;14047;50.936;4.654;2023-05-07T02:44:01;17.10;99.90
26336;DHT22;14047;50.936;4.654;2023-05-07T02:46:27;16.80;99.90
26336;DHT22;14047;50.936;4.654;2023-05-07T02:49:00;16.50;99.90
26336;DHT22;14047;50.936;4.654;2023-05-07T02:51:26;16.60;99.90
26336;DHT22;14047;50.936;4.654;2023-05-07T02:53:55;16.50;99.90
26336;DHT22;14047;50.936;4.654;2023-05-07T02:56:21;16.60;99.90
26336;DHT22;14047;50.936;4.654;2023-05-07T02:58:47;16.60;99.90
26336;DHT22;14047;50.936;4.654;2023-05-07T03:01:15;16.70;99.90
26336;DHT22;14047;50.936;4.654;2023-05-07T03:03:48;16.80;99.90
26336;DHT22;14047;50.936;4.654;2023-05-07T03:06:14;16.80;99.90
26336;DHT22;14047;50.936;4.654;2023-05-07T03:08:41;16.80;99.90
26336;DHT22;14047;50.936;4.654;2023-05-07T03:11:07;16.80;99.90
26336;DHT22;14047;50.936;4.654;2023-05-07T03:13:34;16.90;99.90
26336;DHT22;14047;50.936;4.654;2023-05-07T03:16:00;17.00;99.90
26336;DHT22;14047;50.936;4.654;2023-05-07T03:18:26;17.00;99.90
26336;DHT22;14047;50.936;4.654;2023-05-07T03:20:52;16.90;99.90
26336;DHT22;14047;50.936;4.654;2023-05-07T03:23:18;17.00;99.90
26336;DHT22;14047;50.936;4.654;2023-05-07T03:25:44;17.00;99.90
26336;DHT22;14047;50.936;4.654;2023-05-07T03:28:10;17.10;99.90
26336;DHT22;14047;50.936;4.654;2023-05-07T03:30:45;17.10;99.90
26336;DHT22;14047;50.936;4.654;2023-05-07T03:33:11;17.20;99.90
26336;DHT22;14047;50.936;4.654;2023-05-07T03:35:37;17.20;99.90
26336;DHT22;14047;50.936;4.654;2023-05-07T03:38:03;17.30;99.90
26336;DHT22;14047;50.936;4.654;2023-05-07T03:40:33;17.30;99.90
26336;DHT22;14047;50.936;4.654;2023-05-07T03:43:00;17.20;99.90
26336;DHT22;14047;50.936;4.654;2023-05-07T03:45:27;17.20;99.90
26336;DHT22;14047;50.936;4.654;2023-05-07T03:48:16;17.30;99.90
26336;DHT22;14047;50.936;4.654;2023-05-07T03:50:43;17.30;99.90
26336;DHT22;14047;50.936;4.654;2023-05-07T03:53:09;17.30;99.90
26336;DHT22;14047;50.936;4.654;2023-05-07T03:55:38;17.20;99.90
26336;DHT22;14047;50.936;4.654;2023-05-07T03:58:04;17.30;99.90
26336;DHT22;14047;50.936;4.654;2023-05-07T04:00:30;17.30;99.90
26336;DHT22;14047;50.936;4.654;2023-05-07T04:02:59;17.30;99.90
26336;DHT22;14047;50.936;4.654;2023-05-07T04:05:29;17.20;99.90
26336;DHT22;14047;50.936;4.654;2023-05-07T04:07:59;17.30;99.90
26336;DHT22;14047;50.936;4.654;2023-05-07T04:10:32;17.30;99.90
26336;DHT22;14047;50.936;4.654;2023-05-07T04:13:02;17.40;99.90
26336;DHT22;14047;50.936;4.654;2023-05-07T04:15:28;17.30;99.90
26336;DHT22;14047;50.936;4.654;2023-05-07T04:17:54;17.30;99.90
26336;DHT22;14047;50.936;4.654;2023-05-07T04:20:22;17.20;99.90
26336;DHT22;14047;50.936;4.654;2023-05-07T04:22:54;17.00;99.90
26336;DHT22;14047;50.936;4.654;2023-05-07T04:25:21;17.00;99.90
26336;DHT22;14047;50.936;4.654;2023-05-07T04:27:48;17.10;99.90
26336;DHT22;14047;50.936;4.654;2023-05-07T04:30:15;17.00;99.90
26336;DHT22;14047;50.936;4.654;2023-05-07T04:32:42;17.10;99.90
26336;DHT22;14047;50.936;4.654;2023-05-07T04:35:11;17.10;99.90
26336;DHT22;14047;50.936;4.654;2023-05-07T04:37:37;17.00;99.90
26336;DHT22;14047;50.936;4.654;2023-05-07T04:40:05;17.10;99.90
26336;DHT22;14047;50.936;4.654;2023-05-07T04:42:31;17.10;99.90
26336;DHT22;14047;50.936;4.654;2023-05-07T04:44:58;17.20;99.90
26336;DHT22;14047;50.936;4.654;2023-05-07T04:47:24;17.20;99.90
26336;DHT22;14047;50.936;4.654;2023-05-07T04:49:51;17.20;99.90
26336;DHT22;14047;50.936;4.654;2023-05-07T04:52:17;17.30;99.90
26336;DHT22;14047;50.936;4.654;2023-05-07T04:54:43;17.40;99.90
26336;DHT22;14047;50.936;4.654;2023-05-07T04:57:09;17.40;99.90
26336;DHT22;14047;50.936;4.654;2023-05-07T04:59:35;17.50;99.90
26336;DHT22;14047;50.936;4.654;2023-05-07T05:02:01;17.50;99.90
26336;DHT22;14047;50.936;4.654;2023-05-07T05:04:27;17.50;99.90
26336;DHT22;14047;50.936;4.654;2023-05-07T05:06:53;17.60;99.90
26336;DHT22;14047;50.936;4.654;2023-05-07T05:09:19;17.60;99.90
26336;DHT22;14047;50.936;4.654;2023-05-07T05:11:45;17.40;99.90
26336;DHT22;14047;50.936;4.654;2023-05-07T05:14:11;17.40;99.90
26336;DHT22;14047;50.936;4.654;2023-05-07T05:16:37;17.50;99.90
26336;DHT22;14047;50.936;4.654;2023-05-07T05:19:03;17.60;99.90
26336;DHT22;14047;50.936;4.654;2023-05-07T05:21:32;17.80;99.90
26336;DHT22;14047;50.936;4.654;2023-05-07T05:24:04;17.90;99.90
26336;DHT22;14047;50.936;4.654;2023-05-07T05:26:30;17.40;99.90
26336;DHT22;14047;50.936;4.654;2023-05-07T05:28:57;17.40;99.90
26336;DHT22;14047;50.936;4.654;2023-05-07T05:31:24;17.40;99.90
26336;DHT22;14047;50.936;4.654;2023-05-07T05:33:51;17.70;99.90
26336;DHT22;14047;50.936;4.654;2023-05-07T05:36:17;17.70;99.90
26336;DHT22;14047;50.936;4.654;2023-05-07T05:38:45;17.90;99.90
26336;DHT22;14047;50.936;4.654;2023-05-07T05:41:12;18.10;99.90
26336;DHT22;14047;50.936;4.654;2023-05-07T05:43:38;18.20;99.90
26336;DHT22;14047;50.936;4.654;2023-05-07T05:46:04;18.40;99.90
26336;DHT22;14047;50.936;4.654;2023-05-07T05:48:31;18.50;99.90
26336;DHT22;14047;50.936;4.654;2023-05-07T05:50:58;18.60;99.90
26336;DHT22;14047;50.936;4.654;2023-05-07T05:53:24;18.60;99.90
26336;DHT22;14047;50.936;4.654;2023-05-07T05:55:50;18.80;99.90
26336;DHT22;14047;50.936;4.654;2023-05-07T05:58:17;18.70;99.90
26336;DHT22;14047;50.936;4.654;2023-05-07T06:00:50;18.60;99.90
26336;DHT22;14047;50.936;4.654;2023-05-07T06:03:19;18.60;99.90
26336;DHT22;14047;50.936;4.654;2023-05-07T06:05:46;18.50;99.90
26336;DHT22;14047;50.936;4.654;2023-05-07T06:08:12;18.60;99.90
26336;DHT22;14047;50.936;4.654;2023-05-07T06:10:39;18.80;99.90
26336;DHT22;14047;50.936;4.654;2023-05-07T06:13:07;18.80;99.90
26336;DHT22;14047;50.936;4.654;2023-05-07T06:15:34;18.90;99.90
26336;DHT22;14047;50.936;4.654;2023-05-07T06:18:05;18.90;99.90
26336;DHT22;14047;50.936;4.654;2023-05-07T06:20:31;19.10;99.90
26336;DHT22;14047;50.936;4.654;2023-05-07T06:22:58;19.20;99.90
26336;DHT22;14047;50.936;4.654;2023-05-07T06:25:24;19.30;99.90
26336;DHT22;14047;50.936;4.654;2023-05-07T06:27:50;19.30;99.90
26336;DHT22;14047;50.936;4.654;2023-05-07T06:30:16;19.30;99.90
26336;DHT22;14047;50.936;4.654;2023-05-07T06:32:42;19.40;99.90
26336;DHT22;14047;50.936;4.654;2023-05-07T06:35:09;19.50;99.90
26336;DHT22;14047;50.936;4.654;2023-05-07T06:37:37;19.80;99.90
26336;DHT22;14047;50.936;4.654;2023-05-07T06:40:06;19.50;99.90
26336;DHT22;14047;50.936;4.654;2023-05-07T06:42:35;19.30;99.90
26336;DHT22;14047;50.936;4.654;2023-05-07T06:45:19;19.20;99.90
26336;DHT22;14047;50.936;4.654;2023-05-07T06:47:45;18.90;99.90
26336;DHT22;14047;50.936;4.654;2023-05-07T06:50:11;18.70;99.90
26336;DHT22;14047;50.936;4.654;2023-05-07T06:52:38;18.50;99.90
26336;DHT22;14047;50.936;4.654;2023-05-07T06:55:05;18.50;99.90
26336;DHT22;14047;50.936;4.654;2023-05-07T06:57:32;18.30;99.90
26336;DHT22;14047;50.936;4.654;2023-05-07T06:59:57;18.30;99.90
26336;DHT22;14047;50.936;4.654;2023-05-07T07:02:23;18.40;99.90
26336;DHT22;14047;50.936;4.654;2023-05-07T07:04:50;18.30;99.90
26336;DHT22;14047;50.936;4.654;2023-05-07T07:07:16;18.00;99.90
26336;DHT22;14047;50.936;4.654;2023-05-07T07:09:44;17.80;99.90
26336;DHT22;14047;50.936;4.654;2023-05-07T07:12:12;17.90;99.90
26336;DHT22;14047;50.936;4.654;2023-05-07T07:14:40;18.10;99.90
26336;DHT22;14047;50.936;4.654;2023-05-07T07:17:06;18.30;99.90
26336;DHT22;14047;50.936;4.654;2023-05-07T07:19:32;18.20;99.90
26336;DHT22;14047;50.936;4.654;2023-05-07T07:21:59;18.60;99.90
26336;DHT22;14047;50.936;4.654;2023-05-07T07:24:25;18.90;99.90
26336;DHT22;14047;50.936;4.654;2023-05-07T07:26:55;18.80;99.90
26336;DHT22;14047;50.936;4.654;2023-05-07T07:29:23;18.90;99.90
26336;DHT22;14047;50.936;4.654;2023-05-07T07:31:51;18.90;99.90
26336;DHT22;14047;50.936;4.654;2023-05-07T07:34:18;18.90;99.90
26336;DHT22;14047;50.936;4.654;2023-05-07T07:36:44;18.90;99.90
26336;DHT22;14047;50.936;4.654;2023-05-07T07:39:10;18.70;99.90
26336;DHT22;14047;50.936;4.654;2023-05-07T07:41:37;18.60;99.90
26336;DHT22;14047;50.936;4.654;2023-05-07T07:44:03;18.50;99.90
26336;DHT22;14047;50.936;4.654;2023-05-07T07:46:34;18.50;99.90
26336;DHT22;14047;50.936;4.654;2023-05-07T07:49:00;18.60;99.90
26336;DHT22;14047;50.936;4.654;2023-05-07T07:51:26;18.60;99.90
26336;DHT22;14047;50.936;4.654;2023-05-07T07:53:53;18.60;99.90
26336;DHT22;14047;50.936;4.654;2023-05-07T07:56:19;18.70;99.90
26336;DHT22;14047;50.936;4.654;2023-05-07T07:58:45;18.70;99.90
26336;DHT22;14047;50.936;4.654;2023-05-07T08:01:12;18.50;99.90
26336;DHT22;14047;50.936;4.654;2023-05-07T08:03:39;18.50;99.90
26336;DHT22;14047;50.936;4.654;2023-05-07T08:06:06;18.40;99.90
26336;DHT22;14047;50.936;4.654;2023-05-07T08:08:34;18.40;99.90
26336;DHT22;14047;50.936;4.654;2023-05-07T08:11:00;18.30;99.90
26336;DHT22;14047;50.936;4.654;2023-05-07T08:13:31;18.20;99.90
26336;DHT22;14047;50.936;4.654;2023-05-07T08:15:57;18.00;99.90
26336;DHT22;14047;50.936;4.654;2023-05-07T08:18:24;18.00;99.90
26336;DHT22;14047;50.936;4.654;2023-05-07T08:20:51;18.00;99.90
26336;DHT22;14047;50.936;4.654;2023-05-07T08:23:21;18.00;99.90
26336;DHT22;14047;50.936;4.654;2023-05-07T08:25:48;18.00;99.90
26336;DHT22;14047;50.936;4.654;2023-05-07T08:28:15;17.90;99.90
26336;DHT22;14047;50.936;4.654;2023-05-07T08:30:41;17.90;99.90
26336;DHT22;14047;50.936;4.654;2023-05-07T08:33:08;17.60;99.90
26336;DHT22;14047;50.936;4.654;2023-05-07T08:35:34;17.60;99.90
26336;DHT22;14047;50.936;4.654;2023-05-07T08:38:01;17.60;99.90
26336;DHT22;14047;50.936;4.654;2023-05-07T08:40:33;17.60;99.90
26336;DHT22;14047;50.936;4.654;2023-05-07T08:43:03;17.60;99.90
26336;DHT22;14047;50.936;4.654;2023-05-07T08:45:33;17.50;99.90
26336;DHT22;14047;50.936;4.654;2023-05-07T08:48:02;17.50;99.90
26336;DHT22;14047;50.936;4.654;2023-05-07T08:50:35;17.50;99.90
26336;DHT22;14047;50.936;4.654;2023-05-07T08:53:05;17.60;99.90
26336;DHT22;14047;50.936;4.654;2023-05-07T08:55:31;17.60;99.90
26336;DHT22;14047;50.936;4.654;2023-05-07T08:57:59;17.50;99.90
26336;DHT22;14047;50.936;4.654;2023-05-07T09:00:25;17.50;99.90
26336;DHT22;14047;50.936;4.654;2023-05-07T09:02:53;17.60;99.90
26336;DHT22;14047;50.936;4.654;2023-05-07T09:05:20;17.60;99.90
26336;DHT22;14047;50.936;4.654;2023-05-07T09:07:47;17.60;99.90
26336;DHT22;14047;50.936;4.654;2023-05-07T09:10:14;17.70;99.90
26336;DHT22;14047;50.936;4.654;2023-05-07T09:12:42;17.90;99.90
26336;DHT22;14047;50.936;4.654;2023-05-07T09:15:09;18.00;99.90
26336;DHT22;14047;50.936;4.654;2023-05-07T09:17:36;18.00;99.90
26336;DHT22;14047;50.936;4.654;2023-05-07T09:20:03;18.00;99.90
26336;DHT22;14047;50.936;4.654;2023-05-07T09:22:36;18.10;99.90
26336;DHT22;14047;50.936;4.654;2023-05-07T09:25:06;18.30;99.90
26336;DHT22;14047;50.936;4.654;2023-05-07T09:27:33;18.40;99.90
26336;DHT22;14047;50.936;4.654;2023-05-07T09:30:02;18.30;99.90
26336;DHT22;14047;50.936;4.654;2023-05-07T09:32:28;18.20;99.90
26336;DHT22;14047;50.936;4.654;2023-05-07T09:34:56;18.10;99.90
26336;DHT22;14047;50.936;4.654;2023-05-07T09:37:26;18.00;99.90
26336;DHT22;14047;50.936;4.654;2023-05-07T09:39:52;17.90;99.90
26336;DHT22;14047;50.936;4.654;2023-05-07T09:42:25;17.80;99.90
26336;DHT22;14047;50.936;4.654;2023-05-07T09:44:55;17.70;99.90
26336;DHT22;14047;50.936;4.654;2023-05-07T09:47:25;17.60;99.90
26336;DHT22;14047;50.936;4.654;2023-05-07T09:49:56;17.70;99.90
26336;DHT22;14047;50.936;4.654;2023-05-07T09:52:24;17.90;99.90
26336;DHT22;14047;50.936;4.654;2023-05-07T09:54:56;18.00;99.90
26336;DHT22;14047;50.936;4.654;2023-05-07T09:57:27;18.10;99.90
26336;DHT22;14047;50.936;4.654;2023-05-07T09:59:59;18.10;99.90
26336;DHT22;14047;50.936;4.654;2023-05-07T10:02:31;18.20;99.90
26336;DHT22;14047;50.936;4.654;2023-05-07T10:04:59;18.30;99.90
26336;DHT22;14047;50.936;4.654;2023-05-07T10:07:30;18.40;99.90
26336;DHT22;14047;50.936;4.654;2023-05-07T10:10:02;18.50;99.90
26336;DHT22;14047;50.936;4.654;2023-05-07T10:12:35;18.50;99.90
26336;DHT22;14047;50.936;4.654;2023-05-07T10:15:11;18.40;99.90
26336;DHT22;14047;50.936;4.654;2023-05-07T10:17:39;18.30;99.90
26336;DHT22;14047;50.936;4.654;2023-05-07T10:20:07;18.20;99.90
26336;DHT22;14047;50.936;4.654;2023-05-07T10:22:39;18.30;99.90
26336;DHT22;14047;50.936;4.654;2023-05-07T10:25:18;18.30;99.90
26336;DHT22;14047;50.936;4.654;2023-05-07T10:27:48;18.40;99.90
26336;DHT22;14047;50.936;4.654;2023-05-07T10:33:04;18.40;99.90
26336;DHT22;14047;50.936;4.654;2023-05-07T10:35:41;18.50;99.90
26336;DHT22;14047;50.936;4.654;2023-05-07T10:38:08;18.40;99.90
26336;DHT22;14047;50.936;4.654;2023-05-07T10:40:36;18.10;99.90
26336;DHT22;14047;50.936;4.654;2023-05-07T10:43:04;18.00;99.90
26336;DHT22;14047;50.936;4.654;2023-05-07T10:45:37;18.00;99.90
26336;DHT22;14047;50.936;4.654;2023-05-07T10:48:15;17.90;99.90
26336;DHT22;14047;50.936;4.654;2023-05-07T10:50:44;17.90;99.90
26336;DHT22;14047;50.936;4.654;2023-05-07T10:55:48;17.90;99.90
26336;DHT22;14047;50.936;4.654;2023-05-07T11:00:57;18.10;99.90
26336;DHT22;14047;50.936;4.654;2023-05-07T11:03:28;18.20;99.90
26336;DHT22;14047;50.936;4.654;2023-05-07T11:06:13;18.50;99.90
26336;DHT22;14047;50.936;4.654;2023-05-07T11:08:57;18.70;99.90
26336;DHT22;14047;50.936;4.654;2023-05-07T11:11:50;18.90;99.90
26336;DHT22;14047;50.936;4.654;2023-05-07T11:14:44;19.20;99.90
26336;DHT22;14047;50.936;4.654;2023-05-07T11:17:25;19.40;99.90
26336;DHT22;14047;50.936;4.654;2023-05-07T11:19:59;19.70;99.90
26336;DHT22;14047;50.936;4.654;2023-05-07T11:22:43;19.80;99.90
26336;DHT22;14047;50.936;4.654;2023-05-07T11:25:26;19.90;99.90
26336;DHT22;14047;50.936;4.654;2023-05-07T11:28:06;20.10;99.90
26336;DHT22;14047;50.936;4.654;2023-05-07T11:30:33;20.20;99.90
26336;DHT22;14047;50.936;4.654;2023-05-07T11:33:00;20.20;99.90
26336;DHT22;14047;50.936;4.654;2023-05-07T11:35:26;20.20;99.90
26336;DHT22;14047;50.936;4.654;2023-05-07T11:37:59;20.40;99.90
26336;DHT22;14047;50.936;4.654;2023-05-07T11:40:25;20.50;99.90
26336;DHT22;14047;50.936;4.654;2023-05-07T11:42:51;20.60;99.90
26336;DHT22;14047;50.936;4.654;2023-05-07T11:45:23;20.60;99.90
26336;DHT22;14047;50.936;4.654;2023-05-07T11:47:53;20.70;99.90
26336;DHT22;14047;50.936;4.654;2023-05-07T11:50:20;20.50;99.90
26336;DHT22;14047;50.936;4.654;2023-05-07T11:52:52;20.60;99.90
26336;DHT22;14047;50.936;4.654;2023-05-07T11:55:18;20.60;99.90
26336;DHT22;14047;50.936;4.654;2023-05-07T11:57:44;20.60;99.90
26336;DHT22;14047;50.936;4.654;2023-05-07T12:00:11;20.50;99.90
26336;DHT22;14047;50.936;4.654;2023-05-07T12:02:40;20.60;99.90
26336;DHT22;14047;50.936;4.654;2023-05-07T12:05:07;20.70;99.90
26336;DHT22;14047;50.936;4.654;2023-05-07T12:07:34;20.50;99.90
26336;DHT22;14047;50.936;4.654;2023-05-07T12:10:07;20.50;99.90
26336;DHT22;14047;50.936;4.654;2023-05-07T12:12:40;20.20;99.90
26336;DHT22;14047;50.936;4.654;2023-05-07T12:15:08;20.30;99.90
26336;DHT22;14047;50.936;4.654;2023-05-07T12:17:34;20.40;99.90
26336;DHT22;14047;50.936;4.654;2023-05-07T12:20:00;20.60;99.90
26336;DHT22;14047;50.936;4.654;2023-05-07T12:22:26;21.00;99.90
26336;DHT22;14047;50.936;4.654;2023-05-07T12:24:59;21.20;99.90
26336;DHT22;14047;50.936;4.654;2023-05-07T12:27:25;21.50;99.90
26336;DHT22;14047;50.936;4.654;2023-05-07T12:29:51;21.50;99.90
26336;DHT22;14047;50.936;4.654;2023-05-07T12:32:19;21.60;99.90
26336;DHT22;14047;50.936;4.654;2023-05-07T12:34:46;21.60;99.90
26336;DHT22;14047;50.936;4.654;2023-05-07T12:37:12;21.40;99.90
26336;DHT22;14047;50.936;4.654;2023-05-07T12:39:44;21.40;99.90
26336;DHT22;14047;50.936;4.654;2023-05-07T12:42:23;21.60;99.90
26336;DHT22;14047;50.936;4.654;2023-05-07T12:44:51;21.80;99.90
26336;DHT22;14047;50.936;4.654;2023-05-07T12:47:17;22.00;99.90
26336;DHT22;14047;50.936;4.654;2023-05-07T12:49:43;22.20;99.90
26336;DHT22;14047;50.936;4.654;2023-05-07T12:52:11;22.10;99.90
26336;DHT22;14047;50.936;4.654;2023-05-07T12:54:38;22.40;99.90
26336;DHT22;14047;50.936;4.654;2023-05-07T12:57:09;22.50;99.90
26336;DHT22;14047;50.936;4.654;2023-05-07T12:59:41;22.70;99.90
26336;DHT22;14047;50.936;4.654;2023-05-07T13:02:08;22.50;99.90
26336;DHT22;14047;50.936;4.654;2023-05-07T13:04:36;22.50;99.90
26336;DHT22;14047;50.936;4.654;2023-05-07T13:07:02;22.60;99.90
26336;DHT22;14047;50.936;4.654;2023-05-07T13:09:28;22.90;99.90
26336;DHT22;14047;50.936;4.654;2023-05-07T13:11:55;23.10;99.90
26336;DHT22;14047;50.936;4.654;2023-05-07T13:14:21;23.10;99.90
26336;DHT22;14047;50.936;4.654;2023-05-07T13:16:47;23.20;99.90
26336;DHT22;14047;50.936;4.654;2023-05-07T13:19:14;23.40;99.90
26336;DHT22;14047;50.936;4.654;2023-05-07T13:21:40;23.10;99.90
26336;DHT22;14047;50.936;4.654;2023-05-07T13:24:06;22.90;99.90
26336;DHT22;14047;50.936;4.654;2023-05-07T13:26:32;23.00;99.90
26336;DHT22;14047;50.936;4.654;2023-05-07T13:28:58;23.10;99.90
26336;DHT22;14047;50.936;4.654;2023-05-07T13:31:24;23.30;99.90
26336;DHT22;14047;50.936;4.654;2023-05-07T13:33:50;23.60;99.90
26336;DHT22;14047;50.936;4.654;2023-05-07T13:36:16;23.60;99.90
26336;DHT22;14047;50.936;4.654;2023-05-07T13:38:42;23.60;99.90
26336;DHT22;14047;50.936;4.654;2023-05-07T13:41:08;23.60;99.90
26336;DHT22;14047;50.936;4.654;2023-05-07T13:43:34;23.50;99.90
26336;DHT22;14047;50.936;4.654;2023-05-07T13:46:00;23.60;99.90
26336;DHT22;14047;50.936;4.654;2023-05-07T13:48:27;23.80;99.90
26336;DHT22;14047;50.936;4.654;2023-05-07T13:50:54;24.00;99.90
26336;DHT22;14047;50.936;4.654;2023-05-07T13:53:20;24.20;99.90
26336;DHT22;14047;50.936;4.654;2023-05-07T13:55:46;24.30;99.90
26336;DHT22;14047;50.936;4.654;2023-05-07T13:58:12;24.00;99.90
26336;DHT22;14047;50.936;4.654;2023-05-07T14:00:38;24.10;99.90
26336;DHT22;14047;50.936;4.654;2023-05-07T14:03:05;24.30;99.90
26336;DHT22;14047;50.936;4.654;2023-05-07T14:05:31;24.40;99.90
26336;DHT22;14047;50.936;4.654;2023-05-07T14:07:57;24.30;99.90
26336;DHT22;14047;50.936;4.654;2023-05-07T14:10:24;24.40;99.90
26336;DHT22;14047;50.936;4.654;2023-05-07T14:12:50;24.30;99.90
26336;DHT22;14047;50.936;4.654;2023-05-07T14:15:16;24.20;99.90
26336;DHT22;14047;50.936;4.654;2023-05-07T14:17:45;24.20;99.90
26336;DHT22;14047;50.936;4.654;2023-05-07T14:20:11;24.10;99.90
26336;DHT22;14047;50.936;4.654;2023-05-07T14:22:37;24.00;99.90
26336;DHT22;14047;50.936;4.654;2023-05-07T14:25:04;23.90;99.90
26336;DHT22;14047;50.936;4.654;2023-05-07T14:27:30;23.80;99.90
26336;DHT22;14047;50.936;4.654;2023-05-07T14:29:56;23.30;99.90
26336;DHT22;14047;50.936;4.654;2023-05-07T14:32:22;23.10;99.90
26336;DHT22;14047;50.936;4.654;2023-05-07T14:34:48;22.90;99.90
26336;DHT22;14047;50.936;4.654;2023-05-07T14:37:15;22.90;99.90
26336;DHT22;14047;50.936;4.654;2023-05-07T14:39:41;23.00;99.90
26336;DHT22;14047;50.936;4.654;2023-05-07T14:42:07;22.60;99.90
26336;DHT22;14047;50.936;4.654;2023-05-07T14:44:36;22.40;99.90
26336;DHT22;14047;50.936;4.654;2023-05-07T14:47:02;21.60;99.90
26336;DHT22;14047;50.936;4.654;2023-05-07T14:49:28;21.70;99.90
26336;DHT22;14047;50.936;4.654;2023-05-07T14:51:55;22.00;99.90
26336;DHT22;14047;50.936;4.654;2023-05-07T14:54:22;21.30;99.90
26336;DHT22;14047;50.936;4.654;2023-05-07T14:56:49;21.40;99.90
26336;DHT22;14047;50.936;4.654;2023-05-07T14:59:14;21.90;99.90
26336;DHT22;14047;50.936;4.654;2023-05-07T15:01:42;22.10;99.90
26336;DHT22;14047;50.936;4.654;2023-05-07T15:04:11;22.40;99.90
26336;DHT22;14047;50.936;4.654;2023-05-07T15:06:37;22.50;99.90
26336;DHT22;14047;50.936;4.654;2023-05-07T15:09:03;22.10;99.90
26336;DHT22;14047;50.936;4.654;2023-05-07T15:11:29;22.10;99.90
26336;DHT22;14047;50.936;4.654;2023-05-07T15:13:55;22.30;99.90
26336;DHT22;14047;50.936;4.654;2023-05-07T15:16:21;22.20;99.90
26336;DHT22;14047;50.936;4.654;2023-05-07T15:18:48;22.50;99.90
26336;DHT22;14047;50.936;4.654;2023-05-07T15:21:14;22.80;99.90
26336;DHT22;14047;50.936;4.654;2023-05-07T15:23:40;22.90;99.90
26336;DHT22;14047;50.936;4.654;2023-05-07T15:26:07;23.20;99.90
26336;DHT22;14047;50.936;4.654;2023-05-07T15:28:33;23.40;99.90
26336;DHT22;14047;50.936;4.654;2023-05-07T15:31:00;23.60;99.90
26336;DHT22;14047;50.936;4.654;2023-05-07T15:33:26;23.80;99.90
26336;DHT22;14047;50.936;4.654;2023-05-07T15:35:52;24.00;99.90
26336;DHT22;14047;50.936;4.654;2023-05-07T15:38:18;23.90;99.90
26336;DHT22;14047;50.936;4.654;2023-05-07T15:40:43;24.00;99.90
26336;DHT22;14047;50.936;4.654;2023-05-07T15:43:11;24.00;99.90
26336;DHT22;14047;50.936;4.654;2023-05-07T15:45:41;24.00;99.90